createdAt,value
2023-01-07T00:01:32.866Z,12.30
2023-01-07T00:04:01.877Z,12.30
2023-01-07T00:06:34.973Z,12.30
2023-01-07T00:09:03.175Z,12.40
2023-01-07T00:11:32.849Z,12.30
2023-01-07T00:14:01.080Z,12.30
2023-01-07T00:16:31.554Z,12.20
2023-01-07T00:19:01.047Z,12.20
2023-01-07T00:21:28.848Z,12.30
2023-01-07T00:23:58.294Z,12.30
2023-01-07T00:26:27.338Z,12.30
2023-01-07T00:28:54.723Z,12.30
2023-01-07T00:31:28.224Z,12.20
2023-01-07T00:33:55.710Z,12.20
2023-01-07T00:36:24.507Z,12.20
2023-01-07T00:38:55.935Z,12.30
2023-01-07T00:41:23.261Z,12.30
2023-01-07T00:43:50.109Z,12.30
2023-01-07T00:46:17.203Z,12.30
2023-01-07T00:48:45.051Z,12.30
2023-01-07T00:51:13.739Z,12.20
2023-01-07T00:53:40.742Z,12.20
2023-01-07T00:56:09.107Z,12.20
2023-01-07T00:58:36.885Z,12.20
2023-01-07T01:01:04.418Z,12.20
2023-01-07T01:03:32.513Z,12.20
2023-01-07T01:06:08.069Z,12.10
2023-01-07T01:08:35.923Z,12.10
2023-01-07T01:11:07.887Z,12.00
2023-01-07T01:13:36.696Z,12.00
2023-01-07T01:16:08.652Z,12.00
2023-01-07T01:18:35.860Z,12.10
2023-01-07T01:21:07.251Z,12.10
2023-01-07T01:23:34.759Z,12.20
2023-01-07T01:26:10.891Z,12.20
2023-01-07T01:28:39.316Z,12.20
2023-01-07T01:31:06.678Z,12.20
2023-01-07T01:33:34.699Z,12.20
2023-01-07T01:36:10.384Z,12.30
2023-01-07T01:38:37.530Z,12.30
2023-01-07T01:41:04.774Z,12.30
2023-01-07T01:43:37.663Z,12.30
2023-01-07T01:46:19.356Z,12.30
2023-01-07T01:49:24.012Z,12.30
2023-01-07T01:51:58.730Z,12.30
2023-01-07T01:54:25.931Z,12.20
2023-01-07T01:56:54.779Z,12.20
2023-01-07T01:59:26.785Z,12.10
2023-01-07T02:01:53.866Z,12.00
2023-01-07T02:04:23.637Z,12.00
2023-01-07T02:06:53.071Z,11.90
2023-01-07T02:09:19.843Z,11.80
2023-01-07T02:12:18.143Z,11.90
2023-01-07T02:15:27.047Z,11.90
2023-01-07T02:18:11.886Z,11.90
2023-01-07T02:21:07.019Z,12.00
2023-01-07T02:24:01.022Z,11.90
2023-01-07T02:26:46.471Z,11.90
2023-01-07T02:29:27.937Z,11.90
2023-01-07T02:32:28.475Z,11.90
2023-01-07T02:35:01.156Z,11.80
2023-01-07T02:37:55.944Z,11.70
2023-01-07T02:40:26.050Z,11.70
2023-01-07T02:42:58.771Z,11.70
2023-01-07T02:45:36.814Z,11.60
2023-01-07T02:48:08.632Z,11.60
2023-01-07T02:50:35.460Z,11.70
2023-01-07T02:53:02.547Z,11.70
2023-01-07T02:56:01.151Z,11.70
2023-01-07T02:58:52.619Z,11.60
2023-01-07T03:01:50.038Z,11.50
2023-01-07T03:04:44.837Z,11.50
2023-01-07T03:07:49.423Z,11.50
2023-01-07T03:10:25.526Z,11.40
2023-01-07T03:13:00.022Z,11.40
2023-01-07T03:15:46.681Z,11.40
2023-01-07T03:18:22.444Z,11.40
2023-01-07T03:20:56.828Z,11.50
2023-01-07T03:23:26.652Z,11.50
2023-01-07T03:25:55.578Z,11.50
2023-01-07T03:28:28.061Z,11.60
2023-01-07T03:30:57.278Z,11.60
2023-01-07T03:33:42.731Z,11.70
2023-01-07T03:36:12.471Z,11.70
2023-01-07T03:38:43.188Z,11.70
2023-01-07T03:41:10.095Z,11.80
2023-01-07T03:43:36.918Z,11.80
2023-01-07T03:46:03.909Z,11.80
2023-01-07T03:48:31.067Z,11.80
2023-01-07T03:50:58.274Z,11.80
2023-01-07T03:53:25.001Z,11.90
2023-01-07T03:55:51.894Z,11.90
2023-01-07T03:58:18.770Z,11.90
2023-01-07T04:00:47.146Z,11.90
2023-01-07T04:03:14.272Z,11.80
2023-01-07T04:05:41.120Z,11.90
2023-01-07T04:08:07.905Z,11.90
2023-01-07T04:10:34.617Z,11.90
2023-01-07T04:13:01.574Z,11.90
2023-01-07T04:15:28.327Z,11.90
2023-01-07T04:17:56.093Z,12.00
2023-01-07T04:20:24.405Z,12.10
2023-01-07T04:22:51.105Z,12.00
2023-01-07T04:25:17.876Z,12.00
2023-01-07T04:27:44.588Z,12.00
2023-01-07T04:30:11.776Z,12.00
2023-01-07T04:32:38.750Z,12.00
2023-01-07T04:35:05.767Z,12.00
2023-01-07T04:37:32.509Z,12.00
2023-01-07T04:39:59.317Z,12.00
2023-01-07T04:42:26.027Z,12.00
2023-01-07T04:44:53.397Z,12.00
2023-01-07T04:47:20.118Z,12.00
2023-01-07T04:49:46.913Z,12.00
2023-01-07T04:52:13.968Z,12.00
2023-01-07T04:54:40.771Z,12.00
2023-01-07T04:57:07.531Z,12.00
2023-01-07T04:59:35.599Z,12.00
2023-01-07T05:02:02.551Z,12.00
2023-01-07T05:04:29.482Z,12.00
2023-01-07T05:06:56.310Z,12.10
2023-01-07T05:09:24.088Z,12.10
2023-01-07T05:11:50.837Z,12.10
2023-01-07T05:14:17.613Z,12.10
2023-01-07T05:16:44.846Z,12.10
2023-01-07T05:19:11.887Z,12.10
2023-01-07T05:21:38.758Z,12.20
2023-01-07T05:24:05.753Z,12.20
2023-01-07T05:26:32.455Z,12.20
2023-01-07T05:28:59.251Z,12.30
2023-01-07T05:31:26.090Z,12.20
2023-01-07T05:33:52.855Z,12.30
2023-01-07T05:36:19.587Z,12.30
2023-01-07T05:38:46.348Z,12.30
2023-01-07T05:41:13.135Z,12.30
2023-01-07T05:43:41.034Z,12.30
2023-01-07T05:46:07.886Z,12.30
2023-01-07T05:48:34.585Z,12.30
2023-01-07T05:51:02.127Z,12.30
2023-01-07T05:53:28.826Z,12.30
2023-01-07T05:55:57.583Z,12.40
2023-01-07T05:58:26.873Z,12.30
2023-01-07T06:00:54.099Z,12.30
2023-01-07T06:03:21.379Z,12.30
2023-01-07T06:05:49.164Z,12.40
2023-01-07T06:08:15.917Z,12.40
2023-01-07T06:10:44.310Z,12.40
2023-01-07T06:13:11.039Z,12.40
2023-01-07T06:15:37.855Z,12.40
2023-01-07T06:18:04.592Z,12.40
2023-01-07T06:20:35.872Z,12.40
2023-01-07T06:23:05.575Z,12.30
2023-01-07T06:25:32.390Z,12.30
2023-01-07T06:28:00.167Z,12.20
2023-01-07T06:30:27.250Z,12.20
2023-01-07T06:32:54.667Z,12.20
2023-01-07T06:35:21.637Z,12.20
2023-01-07T06:37:50.842Z,12.20
2023-01-07T06:40:20.077Z,12.10
2023-01-07T06:42:46.860Z,12.10
2023-01-07T06:45:13.680Z,12.10
2023-01-07T06:47:40.540Z,12.10
2023-01-07T06:50:08.114Z,12.10
2023-01-07T06:52:36.103Z,12.10
2023-01-07T06:55:02.830Z,12.00
2023-01-07T06:57:29.955Z,12.00
2023-01-07T06:59:58.185Z,12.00
2023-01-07T07:02:27.204Z,12.00
2023-01-07T07:04:57.771Z,12.00
2023-01-07T07:07:25.524Z,12.00
2023-01-07T07:09:52.305Z,12.00
2023-01-07T07:12:20.126Z,12.00
2023-01-07T07:14:46.947Z,12.00
2023-01-07T07:17:15.064Z,12.00
2023-01-07T07:19:41.855Z,12.00
2023-01-07T07:22:11.855Z,12.00
2023-01-07T07:24:38.599Z,11.90
2023-01-07T07:27:05.398Z,11.90
2023-01-07T07:29:32.084Z,11.90
2023-01-07T07:31:58.795Z,11.90
2023-01-07T07:34:25.625Z,11.80
2023-01-07T07:36:52.341Z,11.80
2023-01-07T07:39:19.085Z,11.80
2023-01-07T07:41:48.059Z,11.90
2023-01-07T07:44:15.858Z,11.90
2023-01-07T07:46:42.629Z,11.90
2023-01-07T07:49:11.434Z,11.90
2023-01-07T07:51:38.377Z,11.90
2023-01-07T07:54:05.151Z,11.90
2023-01-07T07:56:31.907Z,11.90
2023-01-07T07:59:00.037Z,11.90
2023-01-07T08:01:27.889Z,11.90
2023-01-07T08:03:54.710Z,11.90
2023-01-07T08:06:21.452Z,11.90
2023-01-07T08:08:48.188Z,11.80
2023-01-07T08:11:14.960Z,11.70
2023-01-07T08:13:42.739Z,11.80
2023-01-07T08:16:09.521Z,11.70
2023-01-07T08:18:36.308Z,11.70
2023-01-07T08:21:03.521Z,11.70
2023-01-07T08:23:31.354Z,11.70
2023-01-07T08:26:03.344Z,11.70
2023-01-07T08:28:34.534Z,11.70
2023-01-07T08:31:03.993Z,11.70
2023-01-07T08:33:34.132Z,11.60
2023-01-07T08:36:00.886Z,11.60
2023-01-07T08:38:31.490Z,11.60
2023-01-07T08:40:59.678Z,11.60
2023-01-07T08:43:26.725Z,11.60
2023-01-07T08:45:53.840Z,11.60
2023-01-07T08:48:20.639Z,11.70
2023-01-07T08:50:54.520Z,11.70
2023-01-07T08:53:23.730Z,11.70
2023-01-07T08:55:50.590Z,11.70
2023-01-07T08:58:17.316Z,11.70
2023-01-07T09:00:44.305Z,11.70
2023-01-07T09:03:11.030Z,11.70
2023-01-07T09:05:37.809Z,11.80
2023-01-07T09:08:04.866Z,11.80
2023-01-07T09:10:31.672Z,11.80
2023-01-07T09:12:58.473Z,11.80
2023-01-07T09:15:25.458Z,12.00
2023-01-07T09:17:52.261Z,12.10
2023-01-07T09:20:19.304Z,12.30
2023-01-07T09:22:46.388Z,12.40
2023-01-07T09:25:13.404Z,12.50
2023-01-07T09:27:42.729Z,12.60
2023-01-07T09:30:09.959Z,12.60
2023-01-07T09:32:36.802Z,12.50
2023-01-07T09:35:04.767Z,12.50
2023-01-07T09:37:32.750Z,12.50
2023-01-07T09:40:01.210Z,12.40
2023-01-07T09:42:44.891Z,12.40
2023-01-07T09:45:23.589Z,12.40
2023-01-07T09:47:55.464Z,12.30
2023-01-07T09:51:00.036Z,12.20
2023-01-07T09:53:34.294Z,12.20
2023-01-07T09:56:10.762Z,12.10
2023-01-07T09:58:41.659Z,12.10
2023-01-07T10:01:43.656Z,12.10
2023-01-07T10:04:41.630Z,12.10
2023-01-07T10:07:33.161Z,12.10
2023-01-07T10:10:18.165Z,12.10
2023-01-07T10:12:55.050Z,12.10
2023-01-07T10:15:40.379Z,12.10
2023-01-07T10:18:36.609Z,12.10
2023-01-07T10:21:14.986Z,12.10
2023-01-07T10:23:50.448Z,12.20
2023-01-07T10:26:37.725Z,12.30
2023-01-07T10:29:17.368Z,12.30
2023-01-07T10:31:45.605Z,12.30
2023-01-07T10:34:19.618Z,12.30
2023-01-07T10:37:07.355Z,12.30
2023-01-07T10:40:02.059Z,12.20
2023-01-07T10:42:47.395Z,12.30
2023-01-07T10:45:39.313Z,12.30
2023-01-07T10:48:38.942Z,12.30
2023-01-07T10:51:11.561Z,12.20
2023-01-07T10:53:50.110Z,12.20
2023-01-07T10:56:40.389Z,12.20
2023-01-07T10:59:15.731Z,12.30
2023-01-07T11:01:48.784Z,12.30
2023-01-07T11:04:16.715Z,12.30
2023-01-07T11:06:56.698Z,12.30
2023-01-07T11:09:32.488Z,12.40
2023-01-07T11:12:34.738Z,12.30
2023-01-07T11:15:07.517Z,12.30
2023-01-07T11:17:45.882Z,12.30
2023-01-07T11:20:12.652Z,12.40
2023-01-07T11:22:39.924Z,12.40
2023-01-07T11:25:28.567Z,12.40
2023-01-07T11:28:03.300Z,12.30
2023-01-07T11:30:33.253Z,12.40
2023-01-07T11:33:05.471Z,12.30
2023-01-07T11:35:33.158Z,12.30
2023-01-07T11:38:01.585Z,12.30
2023-01-07T11:40:33.161Z,12.30
2023-01-07T11:43:03.789Z,12.30
2023-01-07T11:45:37.858Z,12.30
2023-01-07T11:48:04.543Z,12.30
2023-01-07T11:50:37.538Z,12.30
2023-01-07T11:53:16.128Z,12.30
2023-01-07T11:55:57.147Z,12.40
2023-01-07T11:58:29.319Z,12.40
2023-01-07T12:01:10.133Z,12.40
2023-01-07T12:03:40.715Z,12.40
2023-01-07T12:06:18.096Z,12.50
2023-01-07T12:09:23.769Z,12.40
2023-01-07T12:11:52.948Z,12.40
2023-01-07T12:14:37.104Z,12.40
2023-01-07T12:17:22.631Z,12.40
2023-01-07T12:20:26.938Z,12.40
2023-01-07T12:23:11.930Z,12.40
2023-01-07T12:26:06.570Z,12.40
2023-01-07T12:28:58.364Z,12.40
2023-01-07T12:32:11.614Z,12.40
2023-01-07T12:35:14.676Z,12.40
2023-01-07T12:37:48.638Z,12.40
2023-01-07T12:40:20.845Z,12.40
2023-01-07T12:42:56.588Z,12.40
2023-01-07T12:45:33.461Z,12.40
2023-01-07T12:48:04.872Z,12.50
2023-01-07T12:50:38.746Z,12.50
2023-01-07T12:53:14.536Z,12.40
2023-01-07T12:55:56.368Z,12.40
2023-01-07T12:58:45.669Z,12.40
2023-01-07T13:01:50.639Z,12.40
2023-01-07T13:04:45.401Z,12.40
2023-01-07T13:07:20.348Z,12.40
2023-01-07T13:09:57.111Z,12.50
2023-01-07T13:12:45.508Z,12.50
2023-01-07T13:15:20.895Z,12.40
2023-01-07T13:17:49.937Z,12.40
2023-01-07T13:20:27.177Z,12.40
2023-01-07T13:22:56.464Z,12.40
2023-01-07T13:25:47.314Z,12.40
2023-01-07T13:28:20.249Z,12.40
2023-01-07T13:31:07.504Z,12.40
2023-01-07T13:33:52.763Z,12.30
2023-01-07T13:36:45.375Z,12.40
2023-01-07T13:39:45.130Z,12.50
2023-01-07T13:42:19.294Z,12.40
2023-01-07T13:44:48.963Z,12.40
2023-01-07T13:47:20.000Z,12.40
2023-01-07T13:49:57.271Z,12.50
2023-01-07T13:52:27.805Z,12.40
2023-01-07T13:54:56.420Z,12.50
2023-01-07T13:57:32.205Z,12.50
2023-01-07T14:00:01.000Z,12.50
2023-01-07T14:02:57.311Z,12.50
2023-01-07T14:05:26.681Z,12.50
2023-01-07T14:07:58.007Z,12.50
2023-01-07T14:10:34.867Z,12.50
2023-01-07T14:13:32.446Z,12.40
2023-01-07T14:16:20.533Z,12.40
2023-01-07T14:19:25.554Z,12.40
2023-01-07T14:22:19.919Z,12.30
2023-01-07T14:25:20.579Z,12.30
2023-01-07T14:28:13.088Z,12.30
2023-01-07T14:30:45.864Z,12.20
2023-01-07T14:33:25.971Z,12.20
2023-01-07T14:36:06.436Z,12.20
2023-01-07T14:38:33.153Z,12.30
2023-01-07T14:41:03.014Z,12.30
2023-01-07T14:43:51.735Z,12.20
2023-01-07T14:46:24.319Z,12.20
2023-01-07T14:49:03.226Z,12.30
2023-01-07T14:51:57.028Z,12.20
2023-01-07T14:55:04.743Z,12.20
2023-01-07T14:58:12.835Z,12.20
2023-01-07T15:00:54.674Z,12.30
2023-01-07T15:03:39.815Z,12.20
2023-01-07T15:06:28.824Z,12.20
2023-01-07T15:09:50.967Z,12.20
2023-01-07T15:12:44.008Z,12.30
2023-01-07T15:15:43.944Z,12.30
2023-01-07T15:18:11.948Z,12.30
2023-01-07T15:20:58.967Z,12.30
2023-01-07T15:23:31.127Z,12.30
2023-01-07T15:26:15.338Z,12.30
2023-01-07T15:28:51.387Z,12.30
2023-01-07T15:31:18.111Z,12.20
2023-01-07T15:34:18.954Z,12.20
2023-01-07T15:36:51.629Z,12.20
2023-01-07T15:39:30.750Z,12.20
2023-01-07T15:41:59.552Z,12.20
2023-01-07T15:44:41.273Z,12.20
2023-01-07T15:47:41.369Z,12.20
2023-01-07T15:50:32.242Z,12.20
2023-01-07T15:53:21.900Z,12.10
2023-01-07T15:55:55.670Z,12.10
2023-01-07T15:58:45.879Z,12.10
2023-01-07T16:01:19.345Z,12.00
2023-01-07T16:03:49.788Z,12.00
2023-01-07T16:06:31.294Z,12.00
2023-01-07T16:08:59.108Z,12.00
2023-01-07T16:11:28.267Z,12.00
2023-01-07T16:14:03.679Z,12.00
2023-01-07T16:16:32.399Z,12.00
2023-01-07T16:19:09.563Z,12.00
2023-01-07T16:21:40.550Z,12.00
2023-01-07T16:24:07.509Z,12.00
2023-01-07T16:26:47.185Z,12.00
2023-01-07T16:29:29.094Z,12.00
2023-01-07T16:31:56.695Z,11.90
2023-01-07T16:34:26.426Z,11.90
2023-01-07T16:36:58.290Z,11.90
2023-01-07T16:39:32.405Z,11.90
2023-01-07T16:42:18.251Z,11.90
2023-01-07T16:44:45.055Z,11.90
2023-01-07T16:47:19.161Z,11.90
2023-01-07T16:49:45.785Z,11.90
2023-01-07T16:52:17.991Z,11.80
2023-01-07T16:54:46.049Z,11.80
2023-01-07T16:57:12.805Z,11.80
2023-01-07T16:59:53.832Z,11.80
2023-01-07T17:02:48.766Z,11.70
2023-01-07T17:05:19.997Z,11.70
2023-01-07T17:07:54.826Z,11.70
2023-01-07T17:10:29.074Z,11.70
2023-01-07T17:12:57.826Z,11.70
2023-01-07T17:15:33.889Z,11.70
2023-01-07T17:18:18.665Z,11.70
2023-01-07T17:20:47.443Z,11.60
2023-01-07T17:23:27.206Z,11.60
2023-01-07T17:26:04.640Z,11.50
2023-01-07T17:28:33.988Z,11.50
2023-01-07T17:31:01.717Z,11.50
2023-01-07T17:33:29.163Z,11.50
2023-01-07T17:35:58.583Z,11.50
2023-01-07T17:38:25.472Z,11.50
2023-01-07T17:40:54.485Z,11.50
2023-01-07T17:43:37.580Z,11.50
2023-01-07T17:46:09.691Z,11.50
2023-01-07T17:48:36.626Z,11.50
2023-01-07T17:51:05.255Z,11.60
2023-01-07T17:53:43.673Z,11.60
2023-01-07T17:56:10.669Z,11.60
2023-01-07T17:58:40.607Z,11.70
2023-01-07T18:01:10.204Z,11.70
2023-01-07T18:03:37.164Z,11.70
2023-01-07T18:06:20.343Z,11.80
2023-01-07T18:08:48.978Z,11.80
2023-01-07T18:11:43.541Z,11.80
2023-01-07T18:14:13.461Z,11.80
2023-01-07T18:16:40.814Z,11.80
2023-01-07T18:19:11.716Z,11.80
2023-01-07T18:21:38.580Z,11.80
2023-01-07T18:24:05.731Z,11.80
2023-01-07T18:26:32.560Z,11.80
2023-01-07T18:28:59.280Z,11.80
2023-01-07T18:31:26.059Z,11.80
2023-01-07T18:33:52.828Z,11.80
2023-01-07T18:36:22.030Z,11.80
2023-01-07T18:38:49.749Z,11.90
2023-01-07T18:41:16.533Z,11.80
2023-01-07T18:43:44.528Z,11.80
2023-01-07T18:46:11.339Z,11.80
2023-01-07T18:48:38.441Z,11.80
2023-01-07T18:51:10.506Z,11.80
2023-01-07T18:53:38.858Z,11.80
2023-01-07T18:56:11.448Z,11.80
2023-01-07T18:58:39.455Z,11.80
2023-01-07T19:01:08.820Z,11.80
2023-01-07T19:03:37.018Z,11.80
2023-01-07T19:06:09.318Z,11.80
2023-01-07T19:08:36.702Z,11.90
2023-01-07T19:11:12.180Z,11.90
2023-01-07T19:13:38.957Z,11.90
2023-01-07T19:16:07.624Z,11.80
2023-01-07T19:18:34.705Z,11.80
2023-01-07T19:21:08.880Z,11.80
2023-01-07T19:23:35.610Z,11.80
2023-01-07T19:26:04.997Z,11.80
2023-01-07T19:28:32.894Z,11.80
2023-01-07T19:31:05.715Z,11.80
2023-01-07T19:33:33.075Z,11.80
2023-01-07T19:36:02.145Z,11.80
2023-01-07T19:38:28.929Z,11.80
2023-01-07T19:40:55.950Z,11.80
2023-01-07T19:43:22.761Z,11.80
2023-01-07T19:45:56.507Z,11.90
2023-01-07T19:48:23.731Z,11.90
2023-01-07T19:50:58.085Z,11.90
2023-01-07T19:53:28.938Z,11.90
2023-01-07T19:56:00.171Z,11.90
2023-01-07T19:58:29.169Z,11.90
2023-01-07T20:01:01.098Z,11.90
2023-01-07T20:03:32.150Z,11.90
2023-01-07T20:06:14.658Z,11.90
2023-01-07T20:08:42.196Z,11.90
2023-01-07T20:11:09.519Z,11.90
2023-01-07T20:13:37.586Z,11.80
2023-01-07T20:16:13.134Z,11.80
2023-01-07T20:18:47.434Z,11.80
2023-01-07T20:21:16.424Z,11.80
2023-01-07T20:23:43.944Z,11.80
2023-01-07T20:26:16.701Z,11.80
2023-01-07T20:28:43.905Z,11.80
2023-01-07T20:31:13.841Z,11.80
2023-01-07T20:33:41.931Z,11.80
2023-01-07T20:36:12.718Z,11.80
2023-01-07T20:38:42.282Z,11.80
2023-01-07T20:41:13.189Z,11.80
2023-01-07T20:43:39.945Z,11.80
2023-01-07T20:46:07.958Z,11.70
2023-01-07T20:48:35.392Z,11.70
2023-01-07T20:51:09.475Z,11.70
2023-01-07T20:53:36.829Z,11.70
2023-01-07T20:56:05.084Z,11.70
2023-01-07T20:58:33.581Z,11.80
2023-01-07T21:01:05.512Z,11.80
2023-01-07T21:03:32.427Z,11.70
2023-01-07T21:05:59.267Z,11.80
2023-01-07T21:08:26.213Z,11.80
2023-01-07T21:10:54.425Z,11.80
2023-01-07T21:13:22.533Z,11.80
2023-01-07T21:15:49.619Z,11.80
2023-01-07T21:18:18.776Z,11.80
2023-01-07T21:20:46.641Z,11.80
2023-01-07T21:23:13.391Z,11.90
2023-01-07T21:25:40.120Z,11.80
2023-01-07T21:28:07.052Z,11.80
2023-01-07T21:30:34.008Z,11.80
2023-01-07T21:33:00.999Z,11.80
2023-01-07T21:35:27.718Z,11.80
2023-01-07T21:37:55.509Z,11.70
2023-01-07T21:40:22.788Z,11.70
2023-01-07T21:42:49.911Z,11.70
2023-01-07T21:45:17.493Z,11.80
2023-01-07T21:47:44.381Z,11.80
2023-01-07T21:50:13.443Z,11.70
2023-01-07T21:52:40.184Z,11.70
2023-01-07T21:55:08.245Z,11.70
2023-01-07T21:57:39.712Z,11.70
2023-01-07T22:00:10.070Z,11.70
2023-01-07T22:02:36.823Z,11.70
2023-01-07T22:05:03.612Z,11.70
2023-01-07T22:07:30.305Z,11.70
2023-01-07T22:09:58.565Z,11.60
2023-01-07T22:12:25.783Z,11.60
2023-01-07T22:14:52.496Z,11.60
2023-01-07T22:17:20.062Z,11.60
2023-01-07T22:19:47.838Z,11.60
2023-01-07T22:22:16.657Z,11.70
2023-01-07T22:24:43.370Z,11.60
2023-01-07T22:27:10.119Z,11.70
2023-01-07T22:29:37.311Z,11.70
2023-01-07T22:32:04.215Z,11.70
2023-01-07T22:34:31.303Z,11.70
2023-01-07T22:37:07.189Z,11.60
2023-01-07T22:39:47.106Z,11.70
2023-01-07T22:42:19.530Z,11.70
2023-01-07T22:44:53.080Z,11.60
2023-01-07T22:47:26.264Z,11.60
2023-01-07T22:49:53.963Z,11.50
2023-01-07T22:52:20.989Z,11.60
2023-01-07T22:54:47.757Z,11.50
2023-01-07T22:57:14.843Z,11.50
2023-01-07T22:59:42.930Z,11.50
2023-01-07T23:02:11.453Z,11.40
2023-01-07T23:04:38.541Z,11.50
2023-01-07T23:07:06.413Z,11.40
2023-01-07T23:09:33.159Z,11.40
2023-01-07T23:12:00.903Z,11.50
2023-01-07T23:14:29.539Z,11.50
2023-01-07T23:16:59.020Z,11.50
2023-01-07T23:19:26.942Z,11.50
2023-01-07T23:21:54.801Z,11.60
2023-01-07T23:24:25.440Z,11.60
2023-01-07T23:26:53.534Z,11.60
2023-01-07T23:29:20.526Z,11.60
2023-01-07T23:31:47.556Z,11.60
2023-01-07T23:34:15.262Z,11.60
2023-01-07T23:36:42.029Z,11.60
2023-01-07T23:39:08.948Z,11.60
2023-01-07T23:41:35.960Z,11.60
2023-01-07T23:44:03.001Z,11.60
2023-01-07T23:46:29.822Z,11.60
2023-01-07T23:48:56.639Z,11.60
2023-01-07T23:51:23.428Z,11.60
2023-01-07T23:53:50.390Z,11.60
2023-01-07T23:56:21.205Z,11.70
2023-01-07T23:58:49.147Z,11.70
